createdAt,value
2018-08-22T11:39:15.215Z,2.20
2018-08-22T11:41:17.293Z,2.07
2018-08-22T11:43:19.555Z,2.40
2018-08-22T11:45:21.604Z,2.50
2018-08-22T11:47:23.669Z,2.70
2018-08-22T11:49:25.901Z,2.53
2018-08-22T11:51:27.947Z,2.70
2018-08-22T11:53:30.007Z,2.40
2018-08-22T11:55:32.043Z,2.53
2018-08-22T11:57:35.647Z,2.40
2018-08-22T11:59:37.744Z,2.53
2018-08-22T12:01:40.377Z,2.17
2018-08-22T12:03:44.729Z,2.33
2018-08-22T12:05:47.893Z,2.60
2018-08-22T12:07:51.105Z,2.57
2018-08-22T12:09:55.342Z,2.40
2018-08-22T12:11:57.385Z,2.67
2018-08-22T12:13:59.430Z,2.77
2018-08-22T12:16:01.578Z,2.60
2018-08-22T12:18:03.686Z,2.83
2018-08-22T12:20:07.627Z,2.30
2018-08-22T12:22:11.833Z,3.20
2018-08-22T12:24:13.856Z,3.80
2018-08-22T12:26:19.009Z,2.90
2018-08-22T12:28:24.063Z,2.93
2018-08-22T12:30:27.045Z,2.63
2018-08-22T12:32:29.807Z,3.17
2018-08-22T12:34:33.048Z,2.90
2018-08-22T12:36:36.587Z,3.30
2018-08-22T12:38:39.675Z,3.30
2018-08-22T12:40:41.742Z,3.03
2018-08-22T12:42:45.182Z,3.00
2018-08-22T12:44:50.424Z,3.90
2018-08-22T12:46:53.240Z,3.67
2018-08-22T12:48:57.618Z,3.30
2018-08-22T12:50:59.968Z,4.23
2018-08-22T12:53:04.219Z,3.33
2018-08-22T12:55:09.144Z,3.33
2018-08-22T12:57:17.585Z,3.70
2018-08-22T12:59:24.338Z,3.60
2018-08-22T13:01:32.559Z,4.07
2018-08-22T13:03:38.707Z,3.43
2018-08-22T13:05:54.448Z,3.97
2018-08-22T13:07:56.568Z,3.37
2018-08-22T13:09:58.706Z,3.50
2018-08-22T13:12:00.949Z,3.17
2018-08-22T13:14:05.228Z,3.67
2018-08-22T13:16:08.909Z,4.87
2018-08-22T13:18:13.231Z,4.20
2018-08-22T13:20:15.301Z,4.17
2018-08-22T13:22:17.409Z,4.03
2018-08-22T13:24:19.475Z,3.73
2018-08-22T13:26:22.868Z,3.83
2018-08-22T13:28:24.982Z,4.30
2018-08-22T13:30:28.921Z,4.17
2018-08-22T13:32:30.958Z,4.10
2018-08-22T13:34:33.027Z,4.00
2018-08-22T13:36:35.086Z,3.93
2018-08-22T13:38:38.750Z,4.23
2018-08-22T13:40:40.808Z,4.00
2018-08-22T13:42:42.920Z,4.63
2018-08-22T13:44:46.428Z,4.40
2018-08-22T13:46:49.261Z,4.60
2018-08-22T13:48:51.373Z,4.90
2018-08-22T13:50:53.425Z,4.73
2018-08-22T13:52:55.475Z,4.50
2018-08-22T13:54:57.526Z,4.20
2018-08-22T13:57:00.182Z,3.67
2018-08-22T13:59:02.281Z,3.83
2018-08-22T14:01:04.326Z,5.00
2018-08-22T14:03:06.402Z,4.70
2018-08-22T14:05:08.455Z,4.70
2018-08-22T14:07:10.516Z,4.80
2018-08-22T14:09:12.635Z,4.40
2018-08-22T14:11:14.692Z,4.30
2018-08-22T14:13:16.848Z,4.50
2018-08-22T14:15:19.034Z,4.03
2018-08-22T14:17:21.498Z,4.40
2018-08-22T14:19:23.824Z,4.30
2018-08-22T14:21:25.953Z,4.50
2018-08-22T14:23:28.059Z,4.33
2018-08-22T14:25:30.673Z,4.70
2018-08-22T14:27:32.822Z,4.40
2018-08-22T14:29:34.948Z,5.27
2018-08-22T14:31:37.081Z,4.30
2018-08-22T14:33:39.237Z,4.20
2018-08-22T14:35:41.427Z,4.17
2018-08-22T14:37:47.258Z,4.27
2018-08-22T14:39:49.654Z,4.60
2018-08-22T14:41:51.725Z,4.30
2018-08-22T14:43:53.980Z,4.50
2018-08-22T14:45:56.077Z,4.67
2018-08-22T14:47:58.135Z,4.37
2018-08-22T14:50:00.233Z,3.93
2018-08-22T14:52:02.349Z,4.40
2018-08-22T14:54:04.558Z,4.33
2018-08-22T14:56:06.659Z,4.00
2018-08-22T14:58:08.818Z,4.60
2018-08-22T15:00:10.901Z,4.40
2018-08-22T15:02:13.017Z,4.17
2018-08-22T15:04:15.032Z,4.33
2018-08-22T15:06:17.093Z,4.57
2018-08-22T15:08:19.154Z,3.93
2018-08-22T15:10:21.309Z,4.30
2018-08-22T15:12:23.562Z,4.17
2018-08-22T15:14:25.741Z,4.50
2018-08-22T15:16:27.805Z,4.33
2018-08-22T15:18:29.872Z,4.30
2018-08-22T15:20:32.627Z,4.37
2018-08-22T15:22:34.689Z,4.70
2018-08-22T15:24:36.737Z,4.40
2018-08-22T15:26:38.769Z,5.10
2018-08-22T15:28:40.809Z,4.00
2018-08-22T15:30:42.877Z,4.87
2018-08-22T15:32:45.263Z,26.23
2018-08-22T15:34:51.112Z,28.27
2018-08-22T15:36:53.160Z,7.07
2018-08-22T15:38:55.192Z,12.70
2018-08-22T15:40:57.316Z,6.43
2018-08-22T15:42:59.354Z,4.97
2018-08-22T15:45:01.421Z,4.30
2018-08-22T15:47:03.639Z,4.83
2018-08-22T15:49:05.737Z,4.13
2018-08-22T15:51:07.779Z,4.20
2018-08-22T15:53:09.925Z,4.33
2018-08-22T15:55:14.772Z,4.50
2018-08-22T15:57:16.816Z,5.40
2018-08-22T15:59:18.861Z,7.33
2018-08-22T16:01:20.880Z,6.17
2018-08-22T16:03:24.157Z,4.67
2018-08-22T16:05:26.209Z,5.00
2018-08-22T16:07:28.259Z,4.80
2018-08-22T16:09:31.469Z,7.70
2018-08-22T16:11:33.505Z,8.63
2018-08-22T16:13:36.469Z,6.53
2018-08-22T16:15:38.512Z,4.60
2018-08-22T16:17:42.311Z,4.60
2018-08-22T16:19:44.365Z,6.90
2018-08-22T16:21:46.397Z,6.10
2018-08-22T16:23:48.461Z,5.07
2018-08-22T16:25:51.483Z,5.33
2018-08-22T16:27:53.548Z,6.13
2018-08-22T16:29:55.745Z,5.17
2018-08-22T16:31:58.400Z,5.20
2018-08-22T16:34:00.456Z,4.50
2018-08-22T16:36:02.512Z,4.43
2018-08-22T16:38:07.736Z,5.10
2018-08-22T16:40:09.780Z,5.10
2018-08-22T16:42:11.866Z,4.60
2018-08-22T16:44:13.916Z,4.80
2018-08-22T16:46:16.124Z,5.57
2018-08-22T16:48:19.387Z,4.70
2018-08-22T16:50:22.545Z,4.70
2018-08-22T16:52:24.570Z,4.90
2018-08-22T16:54:26.591Z,5.00
2018-08-22T16:56:29.910Z,4.80
2018-08-22T16:58:31.954Z,5.30
2018-08-22T17:00:39.586Z,5.33
2018-08-22T17:02:42.613Z,4.80
2018-08-22T17:04:44.662Z,4.80
2018-08-22T17:06:47.005Z,4.80
2018-08-22T17:08:49.556Z,4.37
2018-08-22T17:10:54.721Z,4.60
2018-08-22T17:12:56.804Z,4.30
2018-08-22T17:14:58.860Z,4.57
2018-08-22T17:17:00.929Z,5.40
2018-08-22T17:19:03.035Z,4.90
2018-08-22T17:21:05.084Z,4.80
2018-08-22T17:23:07.139Z,4.60
2018-08-22T17:25:10.925Z,4.63
2018-08-22T17:27:12.980Z,4.43
2018-08-22T17:29:16.237Z,4.97
2018-08-22T17:31:19.036Z,4.77
2018-08-22T17:33:23.730Z,5.00
2018-08-22T17:35:29.942Z,4.97
2018-08-22T17:37:31.984Z,4.50
2018-08-22T17:39:34.038Z,5.10
2018-08-22T17:41:36.092Z,4.73
2018-08-22T17:44:00.164Z,4.90
2018-08-22T17:46:02.289Z,4.70
2018-08-22T17:48:04.912Z,6.90
2018-08-22T17:50:08.204Z,5.10
2018-08-22T17:52:11.496Z,5.40
2018-08-22T17:54:13.602Z,6.33
2018-08-22T17:56:15.656Z,6.50
2018-08-22T17:58:17.934Z,5.50
2018-08-22T18:00:19.986Z,5.93
2018-08-22T18:02:22.020Z,5.90
2018-08-22T18:04:24.085Z,6.00
2018-08-22T18:08:41.571Z,5.40
2018-08-22T18:10:43.633Z,5.23
2018-08-22T18:12:46.053Z,6.30
2018-08-22T18:14:48.177Z,5.87
2018-08-22T18:16:54.717Z,5.37
2018-08-22T18:18:57.032Z,5.30
2018-08-22T18:20:59.977Z,5.57
2018-08-22T18:23:02.083Z,5.53
2018-08-22T18:25:04.703Z,5.23
2018-08-22T18:27:06.766Z,5.80
2018-08-22T18:29:08.869Z,6.17
2018-08-22T18:31:11.385Z,5.97
2018-08-22T18:33:13.473Z,6.50
2018-08-22T18:35:15.590Z,6.50
2018-08-22T18:37:17.670Z,6.50
2018-08-22T18:39:19.731Z,7.10
2018-08-22T18:41:22.093Z,6.63
2018-08-22T18:43:24.193Z,6.50
2018-08-22T18:45:26.753Z,8.40
2018-08-22T18:47:30.688Z,9.50
2018-08-22T18:49:32.888Z,7.90
2018-08-22T18:51:35.176Z,8.17
2018-08-22T18:53:37.346Z,8.20
2018-08-22T18:55:39.427Z,8.13
2018-08-22T18:57:42.005Z,9.13
2018-08-22T18:59:44.243Z,9.43
2018-08-22T19:01:46.412Z,9.73
2018-08-22T19:03:48.563Z,5.97
2018-08-22T19:05:50.640Z,7.90
2018-08-22T19:08:16.556Z,5.37
2018-08-22T19:10:18.759Z,5.77
2018-08-22T19:12:20.909Z,5.47
2018-08-22T19:14:36.542Z,5.67
2018-08-22T19:16:38.658Z,4.53
2018-08-22T19:18:41.013Z,5.47
2018-08-22T19:20:43.281Z,5.50
2018-08-22T19:22:45.454Z,5.30
2018-08-22T19:25:01.833Z,5.80
2018-08-22T19:27:04.054Z,4.80
2018-08-22T19:29:06.284Z,6.00
2018-08-22T19:31:08.365Z,6.27
2018-08-22T19:33:13.134Z,5.80
2018-08-22T19:35:15.213Z,5.00
2018-08-22T19:37:17.325Z,5.47
2018-08-22T19:39:19.538Z,4.83
2018-08-22T19:41:26.617Z,5.43
2018-08-22T19:43:28.840Z,5.20
2018-08-22T19:45:31.889Z,5.47
2018-08-22T19:47:35.001Z,5.87
2018-08-22T19:49:37.129Z,4.90
2018-08-22T19:51:39.256Z,5.30
2018-08-22T19:53:53.941Z,5.50
2018-08-22T19:55:56.016Z,5.67
2018-08-22T19:57:58.399Z,5.30
2018-08-22T20:00:01.798Z,5.60
2018-08-22T20:02:03.858Z,5.47
2018-08-22T20:04:05.987Z,5.60
2018-08-22T20:06:08.065Z,5.17
2018-08-22T20:08:10.208Z,5.50
2018-08-22T20:10:12.458Z,4.90
2018-08-22T20:12:14.649Z,5.40
2018-08-22T20:14:16.798Z,5.57
2018-08-22T20:16:20.164Z,5.60
2018-08-22T20:18:23.072Z,5.33
2018-08-22T20:20:25.193Z,5.30
2018-08-22T20:22:32.059Z,5.37
2018-08-22T20:24:34.194Z,5.20
2018-08-22T20:26:36.666Z,4.87
2018-08-22T20:28:43.577Z,5.10
2018-08-22T20:30:45.703Z,4.93
2018-08-22T20:32:56.504Z,5.17
2018-08-22T20:34:59.924Z,5.40
2018-08-22T20:37:02.058Z,5.77
2018-08-22T20:39:09.097Z,5.70
2018-08-22T20:41:11.257Z,5.00
2018-08-22T20:43:18.287Z,6.50
2018-08-22T20:45:26.164Z,5.50
2018-08-22T20:47:28.249Z,5.20
2018-08-22T20:49:30.496Z,4.57
2018-08-22T20:51:32.912Z,4.90
2018-08-22T20:53:35.076Z,5.20
2018-08-22T20:55:37.263Z,5.97
2018-08-22T20:57:39.306Z,5.70
2018-08-22T20:59:41.401Z,6.30
2018-08-22T21:01:43.993Z,5.50
2018-08-22T21:03:46.964Z,5.53
2018-08-22T21:05:49.234Z,4.90
2018-08-22T21:07:51.361Z,5.63
2018-08-22T21:09:53.529Z,5.17
2018-08-22T21:11:56.662Z,5.70
2018-08-22T21:13:58.857Z,5.80
2018-08-22T21:16:00.982Z,5.23
2018-08-22T21:18:03.137Z,7.40
2018-08-22T21:20:11.174Z,8.07
2018-08-22T21:22:25.861Z,6.13
2018-08-22T21:24:28.061Z,6.60
2018-08-22T21:26:38.741Z,6.17
2018-08-22T21:28:42.226Z,5.50
2018-08-22T21:30:49.834Z,6.00
2018-08-22T21:32:51.940Z,6.03
2018-08-22T21:34:54.094Z,6.10
2018-08-22T21:36:56.225Z,5.87
2018-08-22T21:38:58.403Z,5.50
2018-08-22T21:41:00.514Z,6.87
2018-08-22T21:43:02.654Z,6.27
2018-08-22T21:45:04.788Z,6.20
2018-08-22T21:47:08.921Z,6.10
2018-08-22T21:49:12.369Z,5.57
2018-08-22T21:51:15.408Z,6.17
2018-08-22T21:53:17.554Z,5.83
2018-08-22T21:55:24.304Z,5.90
2018-08-22T21:57:26.376Z,5.87
2018-08-22T21:59:28.537Z,5.83
2018-08-22T22:01:36.222Z,6.40
2018-08-22T22:03:38.329Z,5.80
2018-08-22T22:05:52.772Z,5.70
2018-08-22T22:07:54.865Z,5.30
2018-08-22T22:10:01.564Z,5.30
2018-08-22T22:12:04.243Z,5.77
2018-08-22T22:14:11.534Z,5.60
2018-08-22T22:16:13.627Z,4.93
2018-08-22T22:18:15.732Z,5.60
2018-08-22T22:20:17.804Z,6.10
2018-08-22T22:22:19.834Z,6.97
2018-08-22T22:24:21.932Z,6.60
2018-08-22T22:26:24.036Z,7.33
2018-08-22T22:28:30.741Z,6.33
2018-08-22T22:30:32.833Z,7.50
2018-08-22T22:32:34.937Z,7.10
2018-08-22T22:34:37.796Z,7.37
2018-08-22T22:36:39.869Z,6.70
2018-08-22T22:38:41.920Z,7.60
2018-08-22T22:40:43.960Z,7.70
2018-08-22T22:42:45.992Z,7.10
2018-08-22T22:44:49.252Z,7.30
2018-08-22T22:46:51.298Z,7.60
2018-08-22T22:48:53.351Z,7.70
2018-08-22T22:50:55.389Z,7.80
2018-08-22T22:52:57.464Z,7.93
2018-08-22T22:55:00.800Z,8.13
2018-08-22T22:57:02.852Z,7.23
2018-08-22T22:59:05.068Z,9.00
2018-08-22T23:01:07.247Z,8.97
2018-08-22T23:03:09.312Z,9.20
2018-08-22T23:05:11.484Z,9.90
2018-08-22T23:07:19.771Z,9.00
2018-08-22T23:09:21.936Z,9.90
2018-08-22T23:11:23.977Z,9.73
2018-08-22T23:13:27.634Z,9.40
2018-08-22T23:15:30.520Z,9.50
2018-08-22T23:17:32.563Z,10.93
2018-08-22T23:19:34.606Z,9.83
2018-08-22T23:21:36.656Z,10.17
2018-08-22T23:23:38.708Z,11.17
2018-08-22T23:25:40.788Z,10.27
2018-08-22T23:27:42.832Z,10.87
2018-08-22T23:29:44.860Z,11.30
2018-08-22T23:31:46.925Z,10.90
2018-08-22T23:33:48.968Z,11.83
2018-08-22T23:35:51.020Z,11.03
2018-08-22T23:37:54.144Z,11.27
2018-08-22T23:39:56.180Z,11.97
2018-08-22T23:41:58.212Z,12.67
2018-08-22T23:44:00.643Z,13.00
2018-08-22T23:46:02.681Z,13.30
2018-08-22T23:48:05.043Z,13.00
2018-08-22T23:50:07.085Z,13.80
2018-08-22T23:52:09.157Z,14.20
2018-08-22T23:54:11.181Z,14.07
2018-08-22T23:56:15.324Z,14.67
2018-08-22T23:58:17.372Z,15.90
